createdAt,value
2017-07-31T00:02:05.943Z,100032.18
2017-07-31T00:04:33.901Z,100033.92
2017-07-31T00:07:01.340Z,100038.49
2017-07-31T00:09:29.407Z,100034.34
2017-07-31T00:11:57.191Z,100028.64
2017-07-31T00:14:24.602Z,100041.33
2017-07-31T00:16:52.054Z,100042.66
2017-07-31T00:19:19.456Z,100056.56
2017-07-31T00:21:47.280Z,100057.75
2017-07-31T00:24:14.683Z,100052.47
2017-07-31T00:26:42.093Z,100055.71
2017-07-31T00:29:09.504Z,100055.99
2017-07-31T00:31:36.930Z,100051.95
2017-07-31T00:34:04.338Z,100049.64
2017-07-31T00:36:31.765Z,100048.53
2017-07-31T00:38:59.268Z,100055.95
2017-07-31T00:41:26.667Z,100047.45
2017-07-31T00:43:54.105Z,100047.42
2017-07-31T00:46:21.514Z,100042.13
2017-07-31T00:48:49.090Z,100037.66
2017-07-31T00:51:16.498Z,100030.08
2017-07-31T00:53:43.940Z,100029.48
2017-07-31T00:56:11.353Z,100032.88
2017-07-31T00:58:38.762Z,100037.47
2017-07-31T01:01:06.366Z,100037.45
2017-07-31T01:03:33.783Z,100039.08
2017-07-31T01:06:01.228Z,100027.06
2017-07-31T01:08:28.642Z,100016.26
2017-07-31T01:10:56.042Z,100003.08
2017-07-31T01:13:23.634Z,99996.58
2017-07-31T01:15:51.030Z,100001.12
2017-07-31T01:18:18.455Z,100012.17
2017-07-31T01:20:45.858Z,100013.55
2017-07-31T01:23:13.311Z,100026.27
2017-07-31T01:25:40.883Z,100041.66
2017-07-31T01:28:08.283Z,100047.98
2017-07-31T01:30:35.695Z,100050.03
2017-07-31T01:33:03.128Z,100052.42
2017-07-31T01:35:30.539Z,100049.28
2017-07-31T01:37:57.999Z,100055.37
2017-07-31T01:40:25.404Z,100063.95
2017-07-31T01:42:52.846Z,100074.84
2017-07-31T01:45:20.258Z,100085.63
2017-07-31T01:47:47.716Z,100091.31
2017-07-31T01:50:15.287Z,100094.15
2017-07-31T01:52:42.699Z,100095.36
2017-07-31T01:55:10.137Z,100099.78
2017-07-31T01:57:38.136Z,100097.61
2017-07-31T02:00:05.562Z,100093.32
2017-07-31T02:02:33.130Z,100082.68
2017-07-31T02:05:01.180Z,100077.18
2017-07-31T02:07:28.617Z,100074.23
2017-07-31T02:09:56.057Z,100082.02
2017-07-31T02:12:23.479Z,100068.68
2017-07-31T02:14:51.125Z,100073.11
2017-07-31T02:17:18.518Z,100075.39
2017-07-31T02:19:45.938Z,100075.64
2017-07-31T02:22:13.339Z,100071.95
2017-07-31T02:24:40.745Z,100067.19
2017-07-31T02:27:08.302Z,100076.23
2017-07-31T02:29:36.557Z,100075.03
2017-07-31T02:32:03.968Z,100061.83
2017-07-31T02:34:31.411Z,100052.78
2017-07-31T02:36:58.810Z,100052.16
2017-07-31T02:39:26.538Z,100049.07
2017-07-31T02:41:53.926Z,100053.50
2017-07-31T02:44:21.322Z,100046.87
2017-07-31T02:46:48.742Z,100050.89
2017-07-31T02:49:16.152Z,100053.06
2017-07-31T02:51:43.591Z,100053.17
2017-07-31T02:54:11.036Z,100054.73
2017-07-31T02:56:38.498Z,100049.07
2017-07-31T02:59:05.930Z,100046.34
2017-07-31T03:01:33.327Z,100046.76
2017-07-31T03:04:00.835Z,100059.30
2017-07-31T03:06:28.251Z,100061.55
2017-07-31T03:08:55.670Z,100066.66
2017-07-31T03:11:23.142Z,100066.07
2017-07-31T03:13:52.450Z,100070.22
2017-07-31T03:16:22.543Z,100072.73
2017-07-31T03:18:49.983Z,100074.70
2017-07-31T03:21:17.802Z,100073.56
2017-07-31T03:23:45.254Z,100076.64
2017-07-31T03:26:12.712Z,100086.45
2017-07-31T03:28:40.140Z,100083.06
2017-07-31T03:31:08.021Z,100076.60
2017-07-31T03:33:35.996Z,100069.28
2017-07-31T03:36:03.395Z,100065.42
2017-07-31T03:38:31.501Z,100065.94
2017-07-31T03:40:59.103Z,100066.08
2017-07-31T03:43:26.527Z,100075.12
2017-07-31T03:45:53.911Z,100069.88
2017-07-31T03:48:23.376Z,100074.84
2017-07-31T03:50:51.524Z,100075.08
2017-07-31T03:53:19.009Z,100081.77
2017-07-31T03:55:46.470Z,100088.27
2017-07-31T03:58:13.903Z,100091.86
2017-07-31T04:00:41.333Z,100092.27
2017-07-31T04:03:08.746Z,100096.81
2017-07-31T04:05:36.786Z,100094.27
2017-07-31T04:08:04.219Z,100096.58
2017-07-31T04:10:31.638Z,100092.31
2017-07-31T04:12:59.902Z,100092.80
2017-07-31T04:15:27.882Z,100098.22
2017-07-31T04:17:55.284Z,100091.31
2017-07-31T04:20:22.719Z,100101.12
2017-07-31T04:22:50.534Z,100105.30
2017-07-31T04:25:17.938Z,100100.88
2017-07-31T04:27:45.347Z,100106.51
2017-07-31T04:30:13.656Z,100110.23
2017-07-31T04:32:41.078Z,100108.10
2017-07-31T04:35:08.479Z,100103.02
2017-07-31T04:37:36.681Z,100107.45
2017-07-31T04:40:04.102Z,100104.89
2017-07-31T04:42:31.546Z,100102.98
2017-07-31T04:44:58.989Z,100107.51
2017-07-31T04:47:26.410Z,100113.21
2017-07-31T04:49:55.506Z,100120.42
2017-07-31T04:52:22.927Z,100117.69
2017-07-31T04:54:50.508Z,100118.33
2017-07-31T04:57:17.943Z,100111.56
2017-07-31T04:59:45.363Z,100109.05
2017-07-31T05:02:12.779Z,100112.20
2017-07-31T05:04:40.748Z,100116.47
2017-07-31T05:07:08.255Z,100119.77
2017-07-31T05:09:35.650Z,100114.82
2017-07-31T05:12:04.494Z,100112.05
2017-07-31T05:14:31.953Z,100114.34
2017-07-31T05:16:59.387Z,100116.67
2017-07-31T05:19:26.863Z,100114.11
2017-07-31T05:21:54.254Z,100115.07
2017-07-31T05:24:21.662Z,100121.57
2017-07-31T05:26:49.063Z,100122.93
2017-07-31T05:29:16.487Z,100118.25
2017-07-31T05:31:44.183Z,100112.10
2017-07-31T05:34:14.402Z,100111.40
2017-07-31T05:36:41.850Z,100120.33
2017-07-31T05:39:09.283Z,100122.46
2017-07-31T05:41:38.684Z,100128.39
2017-07-31T05:44:06.983Z,100125.41
2017-07-31T05:46:34.386Z,100128.64
2017-07-31T05:49:01.822Z,100120.56
2017-07-31T05:51:29.253Z,100131.65
2017-07-31T05:53:56.679Z,100134.12
2017-07-31T05:56:24.494Z,100138.90
2017-07-31T05:58:53.592Z,100137.85
2017-07-31T06:01:21.002Z,100138.41
2017-07-31T06:03:49.094Z,100140.30
2017-07-31T06:06:16.528Z,100147.62
2017-07-31T06:08:44.294Z,100153.97
2017-07-31T06:11:15.638Z,100141.56
2017-07-31T06:13:44.598Z,100149.39
2017-07-31T06:16:12.026Z,100156.97
2017-07-31T06:18:40.754Z,100167.94
2017-07-31T06:21:08.404Z,100166.45
2017-07-31T06:23:36.897Z,100167.40
2017-07-31T06:26:04.374Z,100173.07
2017-07-31T06:28:31.810Z,100171.60
2017-07-31T06:31:00.520Z,100168.63
2017-07-31T06:33:30.079Z,100170.39
2017-07-31T06:36:00.914Z,100180.13
2017-07-31T06:38:33.011Z,100178.77
2017-07-31T06:41:03.785Z,100178.50
2017-07-31T06:43:34.830Z,100177.13
2017-07-31T06:46:02.979Z,100184.73
2017-07-31T06:48:30.395Z,100190.94
2017-07-31T06:50:57.813Z,100188.59
2017-07-31T06:53:25.190Z,100191.92
2017-07-31T06:55:53.628Z,100192.32
2017-07-31T06:58:22.751Z,100196.70
2017-07-31T07:00:53.778Z,100203.67
2017-07-31T07:03:21.221Z,100202.91
2017-07-31T07:05:52.967Z,100204.17
2017-07-31T07:08:20.400Z,100208.30
2017-07-31T07:10:48.864Z,100210.12
2017-07-31T07:13:16.855Z,100217.43
2017-07-31T07:15:45.651Z,100216.74
2017-07-31T07:18:13.258Z,100208.45
2017-07-31T07:20:41.046Z,100212.38
2017-07-31T07:23:12.224Z,100218.31
2017-07-31T07:25:39.667Z,100218.84
2017-07-31T07:28:07.067Z,100230.85
2017-07-31T07:30:34.468Z,100219.46
2017-07-31T07:33:01.886Z,100223.91
2017-07-31T07:35:29.325Z,100218.95
2017-07-31T07:37:56.738Z,100213.63
2017-07-31T07:40:24.170Z,100214.56
2017-07-31T07:42:51.587Z,100216.69
2017-07-31T07:45:19.053Z,100214.27
2017-07-31T07:47:46.490Z,100216.30
2017-07-31T07:50:13.993Z,100211.13
2017-07-31T07:52:41.405Z,100215.31
2017-07-31T07:55:13.263Z,100215.59
2017-07-31T07:57:40.715Z,100218.00
2017-07-31T08:00:08.131Z,100218.77
2017-07-31T08:02:35.671Z,100218.34
2017-07-31T08:05:03.070Z,100216.21
2017-07-31T08:07:30.471Z,100214.67
2017-07-31T08:09:57.873Z,100210.35
2017-07-31T08:12:25.858Z,100207.81
2017-07-31T08:14:53.578Z,100212.30
2017-07-31T08:17:21.065Z,100196.01
2017-07-31T08:19:48.503Z,100202.78
2017-07-31T08:22:15.896Z,100208.64
2017-07-31T08:24:43.303Z,100210.97
2017-07-31T08:27:10.717Z,100215.45
2017-07-31T08:29:38.099Z,100213.40
2017-07-31T08:32:05.806Z,100222.27
2017-07-31T08:34:33.235Z,100223.87
2017-07-31T08:37:00.672Z,100236.87
2017-07-31T08:39:28.595Z,100227.18
2017-07-31T08:41:55.993Z,100229.56
2017-07-31T08:44:23.406Z,100234.88
2017-07-31T08:46:50.809Z,100235.10
2017-07-31T08:49:18.191Z,100235.08
2017-07-31T08:51:45.695Z,100248.41
2017-07-31T08:54:13.081Z,100246.16
2017-07-31T08:56:40.471Z,100247.27
2017-07-31T08:59:07.875Z,100245.21
2017-07-31T09:01:35.251Z,100242.98
2017-07-31T09:04:02.797Z,100244.26
2017-07-31T09:06:30.186Z,100237.91
2017-07-31T09:08:57.583Z,100246.78
2017-07-31T09:11:24.971Z,100246.55
2017-07-31T09:13:52.358Z,100258.84
2017-07-31T09:16:19.798Z,100248.41
2017-07-31T09:18:47.186Z,100253.25
2017-07-31T09:21:14.577Z,100255.66
2017-07-31T09:23:41.966Z,100249.50
2017-07-31T09:26:09.355Z,100251.82
2017-07-31T09:28:37.061Z,100242.70
2017-07-31T09:31:04.490Z,100255.84
2017-07-31T09:33:31.862Z,100254.77
2017-07-31T09:35:59.256Z,100255.73
2017-07-31T09:38:30.034Z,100267.31
2017-07-31T09:40:58.402Z,100269.59
2017-07-31T09:43:27.429Z,100275.39
2017-07-31T09:45:54.797Z,100273.80
2017-07-31T09:48:22.207Z,100265.20
2017-07-31T09:50:49.586Z,100263.96
2017-07-31T09:53:16.999Z,100261.11
2017-07-31T09:55:44.394Z,100257.14
2017-07-31T09:58:11.777Z,100260.33
2017-07-31T10:00:39.310Z,100239.05
2017-07-31T10:03:06.731Z,100256.45
2017-07-31T10:05:34.274Z,100259.39
2017-07-31T10:08:01.671Z,100257.91
2017-07-31T10:10:29.071Z,100257.61
2017-07-31T10:12:57.008Z,100265.59
2017-07-31T10:15:24.406Z,100277.74
2017-07-31T10:17:51.843Z,100282.34
2017-07-31T10:20:19.767Z,100278.70
2017-07-31T10:22:47.163Z,100288.25
2017-07-31T10:25:14.561Z,100281.80
2017-07-31T10:27:41.964Z,100274.27
2017-07-31T10:30:09.586Z,100279.25
2017-07-31T10:32:36.984Z,100287.77
2017-07-31T10:35:04.366Z,100287.68
2017-07-31T10:37:31.767Z,100292.33
2017-07-31T10:39:59.150Z,100294.47
2017-07-31T10:42:26.706Z,100302.75
2017-07-31T10:44:54.094Z,100304.27
2017-07-31T10:47:21.479Z,100304.45
2017-07-31T10:49:48.891Z,100298.70
2017-07-31T10:52:16.278Z,100294.37
2017-07-31T10:54:43.879Z,100301.53
2017-07-31T10:57:11.253Z,100305.30
2017-07-31T10:59:38.642Z,100307.92
2017-07-31T11:02:06.035Z,100314.41
2017-07-31T11:04:33.429Z,100300.67
2017-07-31T11:07:00.980Z,100300.41
2017-07-31T11:09:28.374Z,100309.95
2017-07-31T11:11:55.802Z,100308.98
2017-07-31T11:14:23.199Z,100301.62
2017-07-31T11:16:50.590Z,100294.88
2017-07-31T11:19:18.022Z,100298.34
2017-07-31T11:21:45.419Z,100293.72
2017-07-31T11:24:12.807Z,100283.03
2017-07-31T11:26:40.264Z,100290.73
2017-07-31T11:29:07.650Z,100292.50
2017-07-31T11:31:35.253Z,100300.48
2017-07-31T11:34:02.647Z,100301.56
2017-07-31T11:36:30.034Z,100289.23
2017-07-31T11:38:57.435Z,100293.45
2017-07-31T11:41:24.822Z,100298.77
2017-07-31T11:43:52.375Z,100290.77
2017-07-31T11:46:19.771Z,100286.97
2017-07-31T11:48:47.190Z,100287.36
2017-07-31T11:51:14.587Z,100286.05
2017-07-31T11:53:41.983Z,100292.05
2017-07-31T11:56:09.526Z,100289.01
2017-07-31T11:58:36.933Z,100290.38
2017-07-31T12:01:04.322Z,100287.97
2017-07-31T12:03:31.723Z,100285.48
2017-07-31T12:05:59.124Z,100288.05
2017-07-31T12:08:27.358Z,100272.29
2017-07-31T12:10:54.749Z,100270.41
2017-07-31T12:13:22.150Z,100273.59
2017-07-31T12:15:49.556Z,100279.80
2017-07-31T12:18:16.952Z,100272.27
2017-07-31T12:20:44.353Z,100274.23
2017-07-31T12:23:11.747Z,100277.62
2017-07-31T12:25:39.142Z,100284.04
2017-07-31T12:28:06.545Z,100288.48
2017-07-31T12:30:33.952Z,100283.44
2017-07-31T12:33:01.499Z,100284.98
2017-07-31T12:35:28.898Z,100279.19
2017-07-31T12:37:56.291Z,100283.05
2017-07-31T12:40:23.696Z,100278.88
2017-07-31T12:42:51.099Z,100273.59
2017-07-31T12:45:18.506Z,100273.14
2017-07-31T12:47:45.907Z,100276.33
2017-07-31T12:50:13.298Z,100269.30
2017-07-31T12:52:40.707Z,100280.79
2017-07-31T12:55:08.111Z,100262.38
2017-07-31T12:57:35.518Z,100254.97
2017-07-31T13:00:02.914Z,100260.89
2017-07-31T13:02:30.316Z,100260.78
2017-07-31T13:04:57.710Z,100261.66
2017-07-31T13:07:25.107Z,100264.77
2017-07-31T13:09:52.529Z,100279.83
2017-07-31T13:12:19.918Z,100272.50
2017-07-31T13:14:47.317Z,100260.16
2017-07-31T13:17:14.718Z,100245.02
2017-07-31T13:19:42.115Z,100256.27
2017-07-31T13:22:09.710Z,100254.45
2017-07-31T13:24:37.111Z,100242.62
2017-07-31T13:27:04.510Z,100243.14
2017-07-31T13:29:31.911Z,100243.34
2017-07-31T13:31:59.351Z,100256.03
2017-07-31T13:34:26.890Z,100268.94
2017-07-31T13:36:54.287Z,100261.84
2017-07-31T13:39:22.402Z,100257.05
2017-07-31T13:41:49.870Z,100251.79
2017-07-31T13:44:17.329Z,100242.41
2017-07-31T13:46:44.882Z,100243.20
2017-07-31T13:49:12.272Z,100233.83
2017-07-31T13:51:39.655Z,100240.50
2017-07-31T13:54:08.074Z,100244.95
2017-07-31T13:56:35.476Z,100243.91
2017-07-31T13:59:02.897Z,100226.14
2017-07-31T14:01:30.351Z,100224.75
2017-07-31T14:03:57.789Z,100213.67
2017-07-31T14:06:25.180Z,100207.19
2017-07-31T14:08:52.607Z,100204.07
2017-07-31T14:11:21.023Z,100216.20
2017-07-31T14:13:48.515Z,100224.61
2017-07-31T14:16:15.983Z,100233.27
2017-07-31T14:18:43.419Z,100221.16
2017-07-31T14:21:10.925Z,100210.45
2017-07-31T14:23:38.374Z,100203.40
2017-07-31T14:26:05.807Z,100204.84
2017-07-31T14:28:33.280Z,100203.61
2017-07-31T14:31:00.674Z,100210.23
2017-07-31T14:33:28.084Z,100205.02
2017-07-31T14:35:55.478Z,100210.52
2017-07-31T14:38:22.871Z,100218.38
2017-07-31T14:40:50.270Z,100214.48
2017-07-31T14:43:17.667Z,100215.44
2017-07-31T14:45:45.073Z,100214.94
2017-07-31T14:48:12.469Z,100212.88
2017-07-31T14:50:39.870Z,100208.28
2017-07-31T14:53:07.266Z,100205.98
2017-07-31T14:55:34.655Z,100206.13
2017-07-31T14:58:02.099Z,100201.41
2017-07-31T15:00:29.486Z,100194.13
2017-07-31T15:02:56.878Z,100185.98
2017-07-31T15:05:24.655Z,100176.14
2017-07-31T15:07:52.031Z,100169.98
2017-07-31T15:10:19.471Z,100163.95
2017-07-31T15:12:46.867Z,100163.03
2017-07-31T15:15:14.255Z,100165.27
2017-07-31T15:17:41.642Z,100164.98
2017-07-31T15:20:09.042Z,100167.41
2017-07-31T15:22:36.587Z,100167.72
2017-07-31T15:25:03.979Z,100172.61
2017-07-31T15:27:31.367Z,100170.00
2017-07-31T15:29:58.758Z,100164.36
2017-07-31T15:32:26.147Z,100155.19
2017-07-31T15:34:53.695Z,100140.70
2017-07-31T15:37:21.090Z,100129.03
2017-07-31T15:39:48.482Z,100129.84
2017-07-31T15:42:15.907Z,100140.73
2017-07-31T15:44:43.302Z,100136.16
2017-07-31T15:47:10.850Z,100146.52
2017-07-31T15:49:38.238Z,100156.06
2017-07-31T15:52:05.626Z,100151.07
2017-07-31T15:54:33.018Z,100150.84
2017-07-31T15:57:00.422Z,100141.16
2017-07-31T15:59:27.994Z,100141.98
2017-07-31T16:01:55.387Z,100145.02
2017-07-31T16:04:22.780Z,100152.34
2017-07-31T16:06:50.194Z,100152.45
2017-07-31T16:09:17.583Z,100155.41
2017-07-31T16:11:45.074Z,100147.20
2017-07-31T16:14:13.888Z,100145.77
2017-07-31T16:16:41.305Z,100145.73
2017-07-31T16:19:08.739Z,100148.09
2017-07-31T16:21:36.142Z,100149.98
2017-07-31T16:24:03.547Z,100149.33
2017-07-31T16:26:30.937Z,100154.86
2017-07-31T16:28:58.339Z,100144.88
2017-07-31T16:31:25.743Z,100132.77
2017-07-31T16:33:53.714Z,100134.34
2017-07-31T16:36:22.746Z,100131.44
2017-07-31T16:39:01.906Z,100141.50
2017-07-31T16:41:35.656Z,100142.35
2017-07-31T16:44:05.445Z,100142.73
2017-07-31T16:46:32.918Z,100137.88
2017-07-31T16:49:12.185Z,100133.38
2017-07-31T16:51:39.602Z,100128.72
2017-07-31T16:54:07.557Z,100132.05
2017-07-31T16:56:34.982Z,100133.88
2017-07-31T16:59:02.413Z,100123.22
2017-07-31T17:01:29.818Z,100123.00
2017-07-31T17:03:57.305Z,100116.67
2017-07-31T17:06:24.839Z,100116.30
2017-07-31T17:08:52.258Z,100115.98
2017-07-31T17:11:19.655Z,100116.62
2017-07-31T17:13:47.201Z,100115.02
2017-07-31T17:16:14.625Z,100116.94
2017-07-31T17:18:42.068Z,100122.09
2017-07-31T17:21:09.563Z,100115.90
2017-07-31T17:23:36.995Z,100123.00
2017-07-31T17:26:04.476Z,100123.31
2017-07-31T17:28:31.959Z,100122.77
2017-07-31T17:30:59.564Z,100123.32
2017-07-31T17:33:27.002Z,100118.70
2017-07-31T17:35:54.566Z,100114.44
2017-07-31T17:38:21.999Z,100109.91
2017-07-31T17:40:49.400Z,100115.63
2017-07-31T17:43:16.955Z,100116.02
2017-07-31T17:45:44.356Z,100119.72
2017-07-31T17:48:11.752Z,100115.37
2017-07-31T17:50:39.152Z,100123.78
2017-07-31T17:53:06.572Z,100121.20
2017-07-31T17:55:33.980Z,100112.56
2017-07-31T17:58:01.371Z,100101.49
2017-07-31T18:00:28.768Z,100096.73
2017-07-31T18:02:56.170Z,100112.92
2017-07-31T18:05:23.573Z,100120.30
2017-07-31T18:07:51.043Z,100129.44
2017-07-31T18:10:18.418Z,100126.88
2017-07-31T18:12:46.612Z,100119.64
2017-07-31T18:15:14.772Z,100109.27
2017-07-31T18:17:42.173Z,100110.95
2017-07-31T18:20:09.642Z,100114.64
2017-07-31T18:22:37.034Z,100112.30
2017-07-31T18:25:04.431Z,100109.50
2017-07-31T18:27:31.831Z,100109.33
2017-07-31T18:29:59.224Z,100109.86
2017-07-31T18:32:26.730Z,100117.02
2017-07-31T18:34:54.129Z,100112.41
2017-07-31T18:37:21.530Z,100111.19
2017-07-31T18:39:48.938Z,100114.17
2017-07-31T18:42:16.350Z,100131.16
2017-07-31T18:44:43.904Z,100138.52
2017-07-31T18:47:11.346Z,100135.59
2017-07-31T18:49:38.736Z,100135.51
2017-07-31T18:52:06.146Z,100142.98
2017-07-31T18:54:33.546Z,100145.63
2017-07-31T18:57:03.951Z,100147.40
2017-07-31T18:59:31.365Z,100134.51
2017-07-31T19:01:58.767Z,100134.17
2017-07-31T19:04:26.216Z,100133.70
2017-07-31T19:06:53.600Z,100134.36
2017-07-31T19:09:22.058Z,100135.34
2017-07-31T19:11:49.507Z,100142.85
2017-07-31T19:14:16.902Z,100141.44
2017-07-31T19:16:44.309Z,100144.95
2017-07-31T19:19:11.702Z,100142.70
2017-07-31T19:21:39.098Z,100145.56
2017-07-31T19:24:06.500Z,100144.11
2017-07-31T19:26:33.895Z,100144.66
2017-07-31T19:29:01.344Z,100140.39
2017-07-31T19:31:28.744Z,100147.83
2017-07-31T19:33:56.151Z,100151.28
2017-07-31T19:36:23.542Z,100151.94
2017-07-31T19:38:50.943Z,100150.67
2017-07-31T19:41:18.387Z,100156.77
2017-07-31T19:43:45.782Z,100161.41
2017-07-31T19:46:13.186Z,100163.70
2017-07-31T19:48:40.588Z,100169.19
2017-07-31T19:51:07.986Z,100171.07
2017-07-31T19:53:35.390Z,100162.14
2017-07-31T19:56:02.796Z,100155.63
2017-07-31T19:58:30.194Z,100151.88
2017-07-31T20:00:57.602Z,100152.48
2017-07-31T20:03:24.996Z,100158.27
2017-07-31T20:05:52.420Z,100158.33
2017-07-31T20:08:19.826Z,100154.12
2017-07-31T20:10:47.219Z,100154.86
2017-07-31T20:13:14.623Z,100166.86
2017-07-31T20:15:42.015Z,100165.53
2017-07-31T20:18:09.425Z,100159.84
2017-07-31T20:20:36.818Z,100170.13
2017-07-31T20:23:04.210Z,100178.41
2017-07-31T20:25:31.610Z,100182.36
2017-07-31T20:27:59.007Z,100191.36
2017-07-31T20:30:26.419Z,100188.45
2017-07-31T20:32:53.818Z,100187.13
2017-07-31T20:35:21.216Z,100190.33
2017-07-31T20:37:48.618Z,100181.77
2017-07-31T20:40:16.020Z,100171.03
2017-07-31T20:42:43.595Z,100151.92
2017-07-31T20:45:10.992Z,100149.30
2017-07-31T20:47:38.387Z,100155.17
2017-07-31T20:50:05.786Z,100157.78
2017-07-31T20:52:33.189Z,100157.53
2017-07-31T20:55:01.002Z,100165.69
2017-07-31T20:57:28.399Z,100181.12
2017-07-31T20:59:55.798Z,100184.53
2017-07-31T21:02:23.198Z,100191.75
2017-07-31T21:04:50.597Z,100178.08
2017-07-31T21:07:18.106Z,100160.41
2017-07-31T21:09:45.504Z,100161.92
2017-07-31T21:12:12.898Z,100181.25
2017-07-31T21:14:40.298Z,100185.64
2017-07-31T21:17:07.697Z,100183.80
2017-07-31T21:19:35.116Z,100180.56
2017-07-31T21:22:02.510Z,100173.67
2017-07-31T21:24:29.911Z,100164.77
2017-07-31T21:26:57.319Z,100147.84
2017-07-31T21:29:24.715Z,100148.05
2017-07-31T21:31:52.455Z,100182.77
2017-07-31T21:34:19.852Z,100204.48
2017-07-31T21:36:47.242Z,100217.14
2017-07-31T21:39:14.671Z,100227.09
2017-07-31T21:41:42.071Z,100235.83
2017-07-31T21:44:09.750Z,100215.62
2017-07-31T21:46:37.163Z,100202.97
2017-07-31T21:49:04.555Z,100210.17
2017-07-31T21:51:31.958Z,100212.38
2017-07-31T21:53:59.353Z,100207.47
2017-07-31T21:56:26.918Z,100206.13
2017-07-31T21:58:54.311Z,100220.11
2017-07-31T22:01:21.706Z,100212.11
2017-07-31T22:03:49.118Z,100180.98
2017-07-31T22:06:16.522Z,100175.38
2017-07-31T22:08:43.980Z,100189.73
2017-07-31T22:11:11.382Z,100183.09
2017-07-31T22:13:38.783Z,100179.80
2017-07-31T22:16:06.196Z,100172.67
2017-07-31T22:18:33.603Z,100171.97
2017-07-31T22:21:06.663Z,100155.92
2017-07-31T22:23:34.058Z,100129.63
2017-07-31T22:26:02.173Z,100102.99
2017-07-31T22:28:29.794Z,100138.80
2017-07-31T22:30:57.403Z,100133.93
2017-07-31T22:33:24.822Z,100145.59
2017-07-31T22:35:52.214Z,100148.89
2017-07-31T22:38:19.618Z,100143.85
2017-07-31T22:40:53.282Z,100152.86
2017-07-31T22:43:20.688Z,100158.03
2017-07-31T22:45:48.122Z,100174.42
2017-07-31T22:48:15.529Z,100186.48
2017-07-31T22:50:42.927Z,100189.05
2017-07-31T22:53:10.338Z,100185.50
2017-07-31T22:55:37.742Z,100200.52
2017-07-31T22:58:05.344Z,100217.33
2017-07-31T23:00:32.743Z,100241.00
2017-07-31T23:03:00.141Z,100257.33
2017-07-31T23:05:27.546Z,100271.97
2017-07-31T23:07:55.090Z,100288.40
2017-07-31T23:10:22.791Z,100303.52
2017-07-31T23:12:50.187Z,100304.70
2017-07-31T23:15:17.591Z,100315.60
2017-07-31T23:17:44.986Z,100311.63
2017-07-31T23:20:12.390Z,100311.72
2017-07-31T23:22:39.842Z,100297.41
2017-07-31T23:25:07.245Z,100261.77
2017-07-31T23:27:34.638Z,100262.67
2017-07-31T23:30:02.053Z,100275.71
2017-07-31T23:32:29.436Z,100264.90
2017-07-31T23:34:56.877Z,100266.02
2017-07-31T23:37:24.294Z,100249.91
2017-07-31T23:39:51.683Z,100226.37
2017-07-31T23:42:19.082Z,100196.97
2017-07-31T23:44:46.485Z,100174.05
2017-07-31T23:47:13.900Z,100150.64
2017-07-31T23:49:41.292Z,100045.92
2017-07-31T23:52:08.686Z,99929.68
2017-07-31T23:54:36.082Z,100055.41
2017-07-31T23:57:03.478Z,100099.02
2017-07-31T23:59:30.918Z,100088.45
